Historyczne dane pomiarowe

Dodano dane terminowe – wersja testowa.

Dane z okresu 1951-2019

Wersja bazy: 1.34 [2019-03-16, lista zmian], aktualizacja planowana na 2019-04-15

Dane meteo z obszaru Polski uzyskane na podstawie danych udostępnionych przez Instytut Meteorologii i Gospodarki Wodnej – Państwowy Instytut Badawczy.

 

Wybierz Datę:    

       

TemperaturaWilgotnośćZachmurzenieWiatrCiśnienieWidzialnośćZjawiska
 Data    tng td wb rh cc ccl cl cm ch dir g1 g2 mslp ppp      
1999-07-24 00:00:00 14.0--- 12.3 13.089wxwxwx3wx--1019.5 994.9 0.2---wxw1
1999-07-24 01:00:00 14.3--- 12.1 13.086wxwxwx4wx--1019.4 994.8----wx
1999-07-24 02:00:00 14.1--- 11.7 12.785wxwxwx4wx--1019.4 994.8----wx
1999-07-24 03:00:00 14.2--- 11.6 12.784wxwxwx3wx--1020.1 995.5----wx
1999-07-24 04:00:00 14.0--- 11.6 12.685wxwxwxwx5wx--1020.6 995.9----wx
1999-07-24 05:00:00 14.7--- 11.9 13.184wxwxwxwx4wx--1021.0 996.4----wx
1999-07-24 06:00:00 14.9--- 11.8 13.182wxwxwxwx4wx--1021.6 997.0 0.0---wx
1999-07-24 07:00:00 15.6--- 11.8 13.478wxwxwxwx4wx--1022.0 997.4----wx
1999-07-24 08:00:00 16.4--- 12.3 14.077wxwxwxwx3wx--1022.1 997.6----wx
1999-07-24 09:00:00 17.4--- 12.0 14.270wxwxwx2wx--1022.0 997.6----wx
1999-07-24 10:00:00 19.0--- 11.9 14.863wxwxwx2wx--1021.8 997.5----wx
1999-07-24 11:00:00 19.4--- 12.4 15.264wxwxwx3wx--1021.3 997.1----wx
1999-07-24 12:00:00 20.2--- 11.8 15.258wxwxwx2wx--1021.3 997.1 0.0---wx
1999-07-24 13:00:00 20.6--- 11.1 15.054wxwxwx3wx--1021.0 996.9----wx
1999-07-24 14:00:00 20.2--- 11.4 15.057wxwxwxwx3wx--1021.1 996.9----wx
1999-07-24 15:00:00 21.4--- 11.7 15.654wxwxwxwx3wx--1021.0 996.9----wx
1999-07-24 16:00:00 21.6--- 12.3 16.055wxwxwxwx2wx--1020.6 996.6----wx
1999-07-24 17:00:00 20.4--- 12.8 15.862wxwxwxwx4wx--1020.8 996.7----wx
1999-07-24 18:00:00 19.2--- 11.2 14.560wxwxwxwxwx3wx--1021.1 996.9 0.0---wx
1999-07-24 19:00:00 15.7--- 11.9 13.578wxwxwxwx2wx--1021.9 997.3----wx
1999-07-24 20:00:00 14.3--- 11.5 12.783wxwxwx1wx--1022.4 997.7----wx
1999-07-24 21:00:00 14.1--- 11.7 12.785wxwxwx2wx--1022.7 998.0----wx
1999-07-24 22:00:00 13.2--- 11.1 12.087wxwx1wx--1022.9 998.1----wx
1999-07-24 23:00:00 11.8--- 9.8 10.788wxwx3wx--1023.0 998.1----wx

 

Źródłem pochodzenia danych jest Instytut Meteorologii i Gospodarki Wodnej – Państwowy Instytut Badawczy. Dane Instytutu Meteorologii i Gospodarki Wodnej – Państwowego Instytutu Badawczego zostały przetworzone.

Dane źródłowe można odnaleźć na stronie https://dane.imgw.pl